createdAt,value
2024-03-16T00:02:15.120Z,4.97
2024-03-16T00:04:43.632Z,3.83
2024-03-16T00:07:10.025Z,4.32
2024-03-16T00:09:35.972Z,6.38
2024-03-16T00:12:01.872Z,4.10
2024-03-16T00:14:27.728Z,3.42
2024-03-16T00:16:53.623Z,3.80
2024-03-16T00:19:19.477Z,4.80
2024-03-16T00:21:46.028Z,3.70
2024-03-16T00:24:11.891Z,3.25
2024-03-16T00:26:37.773Z,3.15
2024-03-16T00:29:07.818Z,4.35
2024-03-16T00:31:34.290Z,4.07
2024-03-16T00:34:00.136Z,3.60
2024-03-16T00:36:26.147Z,4.05
2024-03-16T00:38:52.009Z,3.35
2024-03-16T00:41:17.981Z,3.35
2024-03-16T00:43:46.847Z,4.55
2024-03-16T00:46:13.588Z,4.05
2024-03-16T00:48:39.452Z,4.28
2024-03-16T00:51:05.827Z,4.55
2024-03-16T00:53:31.712Z,3.75
2024-03-16T00:55:57.528Z,4.35
2024-03-16T00:58:23.415Z,2.72
2024-03-16T01:00:50.020Z,2.92
2024-03-16T01:03:15.944Z,2.70
2024-03-16T01:05:41.807Z,3.08
2024-03-16T01:08:07.656Z,4.28
2024-03-16T01:10:33.491Z,3.95
2024-03-16T01:12:59.365Z,2.47
2024-03-16T01:15:25.237Z,3.38
2024-03-16T01:17:51.183Z,4.15
2024-03-16T01:20:17.157Z,3.22
2024-03-16T01:22:42.999Z,2.72
2024-03-16T01:25:09.223Z,3.67
2024-03-16T01:27:35.345Z,4.57
2024-03-16T01:30:02.844Z,3.70
2024-03-16T01:32:28.874Z,3.03
2024-03-16T01:34:54.822Z,2.92
2024-03-16T01:37:20.740Z,3.17
2024-03-16T01:39:46.683Z,3.13
2024-03-16T01:42:13.515Z,3.67
2024-03-16T01:44:39.659Z,2.92
2024-03-16T01:47:10.082Z,3.00
2024-03-16T01:49:35.986Z,2.35
2024-03-16T01:52:02.032Z,3.72
2024-03-16T01:54:27.964Z,2.38
2024-03-16T01:56:53.840Z,2.97
2024-03-16T01:59:20.009Z,4.20
2024-03-16T02:01:45.924Z,4.05
2024-03-16T02:04:11.943Z,2.25
2024-03-16T02:06:37.962Z,3.63
2024-03-16T02:09:04.232Z,3.63
2024-03-16T02:11:30.133Z,3.75
2024-03-16T02:13:56.202Z,3.10
2024-03-16T02:16:22.052Z,2.40
2024-03-16T02:18:47.988Z,5.32
2024-03-16T02:21:14.585Z,4.45
2024-03-16T02:23:40.436Z,2.72
2024-03-16T02:26:08.100Z,3.58
2024-03-16T02:28:33.956Z,3.28
2024-03-16T02:30:59.979Z,4.03
2024-03-16T02:33:27.964Z,2.33
2024-03-16T02:35:54.797Z,2.58
2024-03-16T02:38:21.444Z,2.75
2024-03-16T02:40:47.351Z,1.52
2024-03-16T02:43:13.326Z,1.30
2024-03-16T02:45:39.142Z,3.72
2024-03-16T02:48:05.709Z,4.25
2024-03-16T02:50:32.738Z,1.52
2024-03-16T02:53:01.813Z,2.92
2024-03-16T02:55:27.686Z,3.30
2024-03-16T02:57:54.499Z,2.15
2024-03-16T03:00:22.189Z,2.10
2024-03-16T03:02:48.078Z,2.17
2024-03-16T03:05:19.982Z,3.00
2024-03-16T03:07:45.935Z,4.72
2024-03-16T03:10:12.926Z,3.20
2024-03-16T03:12:39.500Z,3.50
2024-03-16T03:15:07.226Z,2.85
2024-03-16T03:17:33.266Z,1.33
2024-03-16T03:19:59.237Z,1.65
2024-03-16T03:22:25.164Z,2.90
2024-03-16T03:24:51.036Z,2.00
2024-03-16T03:27:17.043Z,4.20
2024-03-16T03:29:42.842Z,3.15
2024-03-16T03:32:08.813Z,3.17
2024-03-16T03:34:34.790Z,2.25
2024-03-16T03:37:00.732Z,3.17
2024-03-16T03:39:26.771Z,1.40
2024-03-16T03:41:53.184Z,5.47
2024-03-16T03:44:22.203Z,1.98
2024-03-16T03:46:51.764Z,4.18
2024-03-16T03:49:29.233Z,3.67
2024-03-16T03:51:56.069Z,2.90
2024-03-16T03:54:22.086Z,2.35
2024-03-16T03:56:47.906Z,3.65
2024-03-16T03:59:14.351Z,4.63
2024-03-16T04:01:40.277Z,4.22
2024-03-16T04:04:06.169Z,4.93
2024-03-16T04:06:32.136Z,3.55
2024-03-16T04:08:57.972Z,2.13
2024-03-16T04:11:24.809Z,3.53
2024-03-16T04:13:50.667Z,2.72
2024-03-16T04:16:16.589Z,3.58
2024-03-16T04:18:42.520Z,4.18
2024-03-16T04:21:08.472Z,3.40
2024-03-16T04:23:34.534Z,2.03
2024-03-16T04:26:00.398Z,5.85
2024-03-16T04:28:26.428Z,1.95
2024-03-16T04:30:52.534Z,3.65
2024-03-16T04:33:18.440Z,3.00
2024-03-16T04:35:45.706Z,2.53
2024-03-16T04:38:12.257Z,3.53
2024-03-16T04:40:38.920Z,4.13
2024-03-16T04:43:04.997Z,4.68
2024-03-16T04:45:31.276Z,2.20
2024-03-16T04:47:57.215Z,4.10
2024-03-16T04:50:24.720Z,2.22
2024-03-16T04:52:50.686Z,3.15
2024-03-16T04:55:16.681Z,2.33
2024-03-16T04:57:42.573Z,4.22
2024-03-16T05:00:12.334Z,3.55
2024-03-16T05:02:38.700Z,4.00
2024-03-16T05:05:06.865Z,6.13
2024-03-16T05:07:32.909Z,2.15
2024-03-16T05:09:58.906Z,5.35
2024-03-16T05:12:25.647Z,3.20
2024-03-16T05:14:51.507Z,4.65
2024-03-16T05:17:17.437Z,7.38
2024-03-16T05:19:43.493Z,8.02
2024-03-16T05:22:09.489Z,12.00
2024-03-16T05:24:38.523Z,6.50
2024-03-16T05:27:05.512Z,3.67
2024-03-16T05:29:31.652Z,5.10
2024-03-16T05:31:59.085Z,3.03
2024-03-16T05:34:25.035Z,3.10
2024-03-16T05:36:51.155Z,2.10
2024-03-16T05:39:17.130Z,2.42
2024-03-16T05:41:44.192Z,5.30
2024-03-16T05:44:10.879Z,4.95
2024-03-16T05:46:36.883Z,2.35
2024-03-16T05:49:02.937Z,2.70
2024-03-16T05:51:29.718Z,3.60
2024-03-16T05:54:05.221Z,2.70
2024-03-16T05:56:32.899Z,2.97
2024-03-16T05:58:59.247Z,3.58
2024-03-16T06:01:26.151Z,8.50
2024-03-16T06:03:52.345Z,3.20
2024-03-16T06:06:18.226Z,2.67
2024-03-16T06:08:44.819Z,3.67
2024-03-16T06:11:10.739Z,5.63
2024-03-16T06:13:36.933Z,6.80
2024-03-16T06:16:02.977Z,3.75
2024-03-16T06:18:28.963Z,3.25
2024-03-16T06:20:54.950Z,4.07
2024-03-16T06:23:20.858Z,3.60
2024-03-16T06:25:51.334Z,2.38
2024-03-16T06:28:17.970Z,1.10
2024-03-16T06:30:51.125Z,4.72
2024-03-16T06:33:37.620Z,2.33
2024-03-16T06:36:03.785Z,1.95
2024-03-16T06:38:30.342Z,4.25
2024-03-16T06:40:56.529Z,5.40
2024-03-16T06:43:22.470Z,4.97
2024-03-16T06:45:48.388Z,4.43
2024-03-16T06:48:16.804Z,4.82
2024-03-16T06:50:44.813Z,4.70
2024-03-16T06:53:11.658Z,3.65
2024-03-16T06:55:37.963Z,2.30
2024-03-16T06:58:05.288Z,8.05
2024-03-16T07:00:31.976Z,4.55
2024-03-16T07:02:57.890Z,4.38
2024-03-16T07:05:23.928Z,3.78
2024-03-16T07:07:49.868Z,4.55
2024-03-16T07:10:16.037Z,2.97
2024-03-16T07:12:42.122Z,4.53
2024-03-16T07:15:08.684Z,3.53
2024-03-16T07:17:34.586Z,1.80
2024-03-16T07:20:00.599Z,2.40
2024-03-16T07:22:28.051Z,6.22
2024-03-16T07:24:55.384Z,3.88
2024-03-16T07:27:21.334Z,3.97
2024-03-16T07:29:47.995Z,2.55
2024-03-16T07:32:23.471Z,3.95
2024-03-16T07:34:50.556Z,4.47
2024-03-16T07:37:24.588Z,4.70
2024-03-16T07:39:51.399Z,4.78
2024-03-16T07:42:17.606Z,6.07
2024-03-16T07:44:43.904Z,7.40
2024-03-16T07:47:10.903Z,5.93
2024-03-16T07:49:37.228Z,4.93
2024-03-16T07:52:04.449Z,4.78
2024-03-16T07:54:40.039Z,3.97
2024-03-16T07:57:06.064Z,7.80
2024-03-16T07:59:32.201Z,4.47
2024-03-16T08:01:59.397Z,2.60
2024-03-16T08:04:28.325Z,2.97
2024-03-16T08:06:55.037Z,3.72
2024-03-16T08:09:23.865Z,2.88
2024-03-16T08:11:50.116Z,2.47
2024-03-16T08:14:16.139Z,2.70
2024-03-16T08:16:42.141Z,5.70
2024-03-16T08:19:08.266Z,3.67
2024-03-16T08:21:35.108Z,1.27
2024-03-16T08:24:16.366Z,3.03
2024-03-16T08:26:43.742Z,6.55
2024-03-16T08:29:10.536Z,3.33
2024-03-16T08:31:40.875Z,3.75
2024-03-16T08:34:14.856Z,4.22
2024-03-16T08:36:41.363Z,5.75
2024-03-16T08:39:09.378Z,3.95
2024-03-16T08:41:37.020Z,2.55
2024-03-16T08:44:04.917Z,2.60
2024-03-16T08:46:31.415Z,3.53
2024-03-16T08:48:57.921Z,10.80
2024-03-16T08:51:25.277Z,4.80
2024-03-16T08:53:51.364Z,4.10
2024-03-16T08:56:17.486Z,9.40
2024-03-16T08:58:46.091Z,2.13
2024-03-16T09:01:13.685Z,3.03
2024-03-16T09:03:41.055Z,2.33
2024-03-16T09:06:08.105Z,3.20
2024-03-16T09:08:34.070Z,3.00
2024-03-16T09:11:01.197Z,2.28
2024-03-16T09:13:27.178Z,3.10
2024-03-16T09:15:53.465Z,2.95
2024-03-16T09:18:19.554Z,2.78
2024-03-16T09:20:46.818Z,3.75
2024-03-16T09:23:21.782Z,3.67
2024-03-16T09:25:54.519Z,3.55
2024-03-16T09:28:20.913Z,3.15
2024-03-16T09:30:47.395Z,1.90
2024-03-16T09:33:14.235Z,3.28
2024-03-16T09:35:41.050Z,3.47
2024-03-16T09:38:08.164Z,3.83
2024-03-16T09:40:34.988Z,3.58
2024-03-16T09:43:05.449Z,4.57
2024-03-16T09:45:34.922Z,4.40
2024-03-16T09:48:01.214Z,5.82
2024-03-16T09:50:29.649Z,3.10
2024-03-16T09:52:56.067Z,4.68
2024-03-16T09:55:27.720Z,5.03
2024-03-16T09:57:53.992Z,7.75
2024-03-16T10:00:22.133Z,3.97
2024-03-16T10:02:50.707Z,5.75
2024-03-16T10:05:26.940Z,5.82
2024-03-16T10:07:58.099Z,4.63
2024-03-16T10:10:25.100Z,5.28
2024-03-16T10:13:03.379Z,5.57
2024-03-16T10:15:29.472Z,6.40
2024-03-16T10:17:56.866Z,4.28
2024-03-16T10:20:28.296Z,4.43
2024-03-16T10:23:00.767Z,5.78
2024-03-16T10:25:28.723Z,6.32
2024-03-16T10:27:58.072Z,7.10
2024-03-16T10:30:24.157Z,4.82
2024-03-16T10:32:53.458Z,11.55
2024-03-16T10:35:31.522Z,8.00
2024-03-16T10:37:59.005Z,8.77
2024-03-16T10:40:27.533Z,6.47
2024-03-16T10:42:54.253Z,6.10
2024-03-16T10:45:24.933Z,6.75
2024-03-16T10:47:52.086Z,9.23
2024-03-16T10:50:23.077Z,5.93
2024-03-16T10:53:11.773Z,4.95
2024-03-16T10:55:41.752Z,4.78
2024-03-16T10:58:21.423Z,6.88
2024-03-16T11:00:51.084Z,7.70
2024-03-16T11:03:28.545Z,6.13
2024-03-16T11:06:03.208Z,4.43
2024-03-16T11:08:43.589Z,5.63
2024-03-16T11:11:14.282Z,5.80
2024-03-16T11:14:04.086Z,8.77
2024-03-16T11:16:32.544Z,6.95
2024-03-16T11:19:01.218Z,7.43
2024-03-16T11:21:33.260Z,6.00
2024-03-16T11:24:21.572Z,6.97
2024-03-16T11:26:52.773Z,8.63
2024-03-16T11:29:27.501Z,7.85
2024-03-16T11:31:58.406Z,9.18
2024-03-16T11:34:29.892Z,7.40
2024-03-16T11:36:56.847Z,5.03
2024-03-16T11:39:28.656Z,4.35
2024-03-16T11:42:09.317Z,4.53
2024-03-16T11:49:46.985Z,5.28
2024-03-16T11:52:20.681Z,6.18
2024-03-16T11:54:52.846Z,7.25
2024-03-16T11:57:21.765Z,7.25
2024-03-16T11:59:48.829Z,6.93
2024-03-16T12:02:42.123Z,5.20
2024-03-16T12:05:07.411Z,8.55
2024-03-16T12:07:44.918Z,8.20
2024-03-16T12:10:11.639Z,5.47
2024-03-16T12:12:40.314Z,7.22
2024-03-16T12:15:10.748Z,6.35
2024-03-16T12:17:39.981Z,4.18
2024-03-16T12:20:09.339Z,7.53
2024-03-16T12:22:35.510Z,4.35
2024-03-16T12:25:06.221Z,4.53
2024-03-16T12:27:34.337Z,3.22
2024-03-16T12:30:04.545Z,4.80
2024-03-16T12:32:30.446Z,4.93
2024-03-16T12:34:56.649Z,3.15
2024-03-16T12:37:22.724Z,4.63
2024-03-16T12:39:48.658Z,4.15
2024-03-16T12:42:14.809Z,9.70
2024-03-16T12:44:41.210Z,4.50
2024-03-16T12:47:07.515Z,7.68
2024-03-16T12:49:33.641Z,5.80
2024-03-16T12:51:59.961Z,8.05
2024-03-16T12:54:26.314Z,3.47
2024-03-16T12:56:52.444Z,7.50
2024-03-16T12:59:21.090Z,4.97
2024-03-16T13:01:47.922Z,8.02
2024-03-16T13:04:14.019Z,11.25
2024-03-16T13:06:40.654Z,8.77
2024-03-16T13:09:14.328Z,7.05
2024-03-16T13:11:42.839Z,9.23
2024-03-16T13:14:10.902Z,7.75
2024-03-16T13:16:40.472Z,7.65
2024-03-16T13:19:14.887Z,4.90
2024-03-16T13:21:42.685Z,6.50
2024-03-16T13:25:11.485Z,6.95
2024-03-16T13:27:39.449Z,9.23
2024-03-16T13:30:06.243Z,7.10
2024-03-16T13:32:34.440Z,5.32
2024-03-16T13:35:00.721Z,6.00
2024-03-16T13:37:27.280Z,11.65
2024-03-16T13:39:54.467Z,7.20
2024-03-16T13:42:30.510Z,4.28
2024-03-16T13:44:59.812Z,8.85
2024-03-16T13:47:36.887Z,7.47
2024-03-16T13:50:08.880Z,7.45
2024-03-16T13:52:36.792Z,8.07
2024-03-16T13:55:22.010Z,12.88
2024-03-16T13:57:48.683Z,7.13
2024-03-16T14:00:19.703Z,7.45
2024-03-16T14:02:46.529Z,5.45
2024-03-16T14:05:12.626Z,4.90
2024-03-16T14:07:41.099Z,4.88
2024-03-16T14:10:09.281Z,5.07
2024-03-16T14:12:39.536Z,5.25
2024-03-16T14:15:10.424Z,10.48
2024-03-16T14:17:42.426Z,6.10
2024-03-16T14:20:22.071Z,7.35
2024-03-16T14:23:45.533Z,4.22
2024-03-16T14:26:14.652Z,10.90
2024-03-16T14:28:41.672Z,6.20
2024-03-16T14:31:10.655Z,4.90
2024-03-16T14:33:39.038Z,5.95
2024-03-16T14:36:06.630Z,8.63
2024-03-16T14:38:34.907Z,7.28
2024-03-16T14:41:01.261Z,6.85
2024-03-16T14:43:30.257Z,5.22
2024-03-16T14:45:56.554Z,6.22
2024-03-16T14:48:23.376Z,6.95
2024-03-16T14:50:49.709Z,5.10
2024-03-16T14:53:53.972Z,5.07
2024-03-16T14:56:20.761Z,5.65
2024-03-16T14:58:50.068Z,3.95
2024-03-16T15:01:21.391Z,4.20
2024-03-16T15:03:47.626Z,5.72
2024-03-16T15:06:13.627Z,3.85
2024-03-16T15:08:51.105Z,4.22
2024-03-16T15:11:17.559Z,4.13
2024-03-16T15:13:43.627Z,7.32
2024-03-16T15:16:12.062Z,6.13
2024-03-16T15:18:39.008Z,8.90
2024-03-16T15:21:08.984Z,6.15
2024-03-16T15:23:35.046Z,3.92
2024-03-16T15:26:28.525Z,3.17
2024-03-16T15:28:56.024Z,5.53
2024-03-16T15:31:29.327Z,4.28
2024-03-16T15:33:56.861Z,4.90
2024-03-16T15:36:24.034Z,5.43
2024-03-16T15:38:50.214Z,6.68
2024-03-16T15:41:17.807Z,4.72
2024-03-16T15:43:48.834Z,5.63
2024-03-16T15:48:46.644Z,4.10
2024-03-16T15:54:15.187Z,10.52
2024-03-16T15:56:56.826Z,3.55
2024-03-16T16:01:51.088Z,2.33
2024-03-16T16:04:22.651Z,4.93
2024-03-16T16:06:49.286Z,4.63
2024-03-16T16:09:15.945Z,7.55
2024-03-16T16:11:42.056Z,6.00
2024-03-16T16:14:10.402Z,3.65
2024-03-16T16:16:37.463Z,5.05
2024-03-16T16:19:06.674Z,7.68
2024-03-16T16:21:32.835Z,6.40
2024-03-16T16:27:21.394Z,6.28
2024-03-16T16:29:47.888Z,7.90
2024-03-16T16:32:15.329Z,4.22
2024-03-16T16:34:45.191Z,2.90
2024-03-16T16:37:14.128Z,5.20
2024-03-16T16:39:43.614Z,5.93
2024-03-16T16:42:11.262Z,6.35
2024-03-16T16:44:45.119Z,4.22
2024-03-16T16:47:14.695Z,6.07
2024-03-16T16:49:41.668Z,6.78
2024-03-16T16:52:08.039Z,2.75
2024-03-16T16:54:35.394Z,6.88
2024-03-16T16:57:02.325Z,5.82
2024-03-16T16:59:29.117Z,6.43
2024-03-16T17:01:55.054Z,2.95
2024-03-16T17:04:25.135Z,9.82
2024-03-16T17:06:51.341Z,3.78
2024-03-16T17:09:20.989Z,7.20
2024-03-16T17:11:48.821Z,7.50
2024-03-16T17:14:14.916Z,7.07
2024-03-16T17:16:41.412Z,5.30
2024-03-16T17:19:08.697Z,6.57
2024-03-16T17:21:35.942Z,6.22
2024-03-16T17:24:13.380Z,5.70
2024-03-16T17:26:39.990Z,9.50
2024-03-16T17:29:18.037Z,6.57
2024-03-16T17:31:48.275Z,8.65
2024-03-16T17:34:15.550Z,5.10
2024-03-16T17:36:41.726Z,8.43
2024-03-16T17:39:14.237Z,7.60
2024-03-16T17:41:44.221Z,4.47
2024-03-16T17:44:11.619Z,6.95
2024-03-16T17:46:39.289Z,12.00
2024-03-16T17:49:06.064Z,9.68
2024-03-16T17:51:37.407Z,8.32
2024-03-16T17:54:20.100Z,7.53
2024-03-16T17:56:46.348Z,4.80
2024-03-16T17:59:13.717Z,9.68
2024-03-16T18:01:39.695Z,11.27
2024-03-16T18:04:06.144Z,10.35
2024-03-16T18:06:34.610Z,17.23
2024-03-16T18:09:04.798Z,11.88
2024-03-16T18:11:31.719Z,11.55
2024-03-16T18:14:00.532Z,10.23
2024-03-16T18:16:30.850Z,13.30
2024-03-16T18:19:00.835Z,9.80
2024-03-16T18:21:35.635Z,10.52
2024-03-16T18:24:32.712Z,15.13
2024-03-16T18:27:02.931Z,8.05
2024-03-16T18:29:30.451Z,8.05
2024-03-16T18:31:57.663Z,5.45
2024-03-16T18:34:24.893Z,7.53
2024-03-16T18:36:51.373Z,5.53
2024-03-16T18:39:18.968Z,8.90
2024-03-16T18:41:48.868Z,12.48
2024-03-16T18:44:18.905Z,9.32
2024-03-16T18:46:47.977Z,11.20
2024-03-16T18:49:17.091Z,5.53
2024-03-16T18:52:02.982Z,10.25
2024-03-16T18:54:47.670Z,8.33
2024-03-16T18:57:22.605Z,6.25
2024-03-16T18:59:48.677Z,8.57
2024-03-16T19:02:17.112Z,4.38
2024-03-16T19:04:49.949Z,7.85
2024-03-16T19:07:16.373Z,10.10
2024-03-16T19:09:44.153Z,14.07
2024-03-16T19:12:10.841Z,7.53
2024-03-16T19:14:36.968Z,12.27
2024-03-16T19:17:07.061Z,5.97
2024-03-16T19:19:33.010Z,7.75
2024-03-16T19:22:02.085Z,4.82
2024-03-16T19:24:30.522Z,5.18
2024-03-16T19:26:56.777Z,7.90
2024-03-16T19:29:32.635Z,6.75
2024-03-16T19:32:03.817Z,8.55
2024-03-16T19:34:31.638Z,7.63
2024-03-16T19:36:58.946Z,9.25
2024-03-16T19:39:24.897Z,6.47
2024-03-16T19:41:51.234Z,15.02
2024-03-16T19:44:17.246Z,6.00
2024-03-16T19:46:43.951Z,5.45
2024-03-16T19:49:13.607Z,9.77
2024-03-16T19:51:40.386Z,6.95
2024-03-16T19:54:55.742Z,9.02
2024-03-16T19:57:26.971Z,9.70
2024-03-16T19:59:52.936Z,12.90
2024-03-16T20:02:20.055Z,6.60
2024-03-16T20:04:50.424Z,6.32
2024-03-16T20:07:18.047Z,7.75
2024-03-16T20:09:44.283Z,9.38
2024-03-16T20:12:12.310Z,7.35
2024-03-16T20:14:42.580Z,11.43
2024-03-16T20:17:13.072Z,14.82
2024-03-16T20:19:39.683Z,11.02
2024-03-16T20:22:07.957Z,13.63
2024-03-16T20:24:40.601Z,6.50
2024-03-16T20:27:11.157Z,11.02
2024-03-16T20:29:38.299Z,6.03
2024-03-16T20:32:04.862Z,10.85
2024-03-16T20:34:31.188Z,10.52
2024-03-16T20:36:58.161Z,13.23
2024-03-16T20:39:24.058Z,14.02
2024-03-16T20:41:50.016Z,10.90
2024-03-16T20:44:18.230Z,8.13
2024-03-16T20:46:44.441Z,18.38
2024-03-16T20:49:10.513Z,9.55
2024-03-16T20:51:37.915Z,9.07
2024-03-16T20:54:12.909Z,9.52
2024-03-16T20:56:39.490Z,16.05
2024-03-16T20:59:06.645Z,8.27
2024-03-16T21:01:32.871Z,8.27
2024-03-16T21:03:59.292Z,9.48
2024-03-16T21:06:26.202Z,6.45
2024-03-16T21:08:52.066Z,10.50
2024-03-16T21:11:24.771Z,11.30
2024-03-16T21:13:56.135Z,9.35
2024-03-16T21:16:26.588Z,7.75
2024-03-16T21:18:52.504Z,5.65
2024-03-16T21:21:18.541Z,9.32
2024-03-16T21:23:50.489Z,11.63
2024-03-16T21:26:16.519Z,10.85
2024-03-16T21:28:42.653Z,9.80
2024-03-16T21:31:08.577Z,11.10
2024-03-16T21:33:40.078Z,11.13
2024-03-16T21:36:06.408Z,10.68
2024-03-16T21:38:32.307Z,5.97
2024-03-16T21:40:58.206Z,8.70
2024-03-16T21:43:24.191Z,20.10
2024-03-16T21:45:50.356Z,11.07
2024-03-16T21:48:16.351Z,7.78
2024-03-16T21:50:42.695Z,8.75
2024-03-16T21:53:39.689Z,9.27
2024-03-16T21:56:06.000Z,10.52
2024-03-16T21:58:31.972Z,13.60
2024-03-16T22:00:57.894Z,12.15
2024-03-16T22:03:24.001Z,11.80
2024-03-16T22:05:49.932Z,25.50
2024-03-16T22:08:18.139Z,7.30
2024-03-16T22:10:45.801Z,8.40
2024-03-16T22:13:11.912Z,11.13
2024-03-16T22:15:37.788Z,19.30
2024-03-16T22:18:04.784Z,12.63
2024-03-16T22:20:30.752Z,10.30
2024-03-16T22:23:01.007Z,11.50
2024-03-16T22:25:26.991Z,17.33
2024-03-16T22:27:52.877Z,13.73
2024-03-16T22:30:22.493Z,14.43
2024-03-16T22:32:49.102Z,11.57
2024-03-16T22:35:15.858Z,12.00
2024-03-16T22:37:42.097Z,9.57
2024-03-16T22:40:11.755Z,6.35
2024-03-16T22:42:41.330Z,12.52
2024-03-16T22:45:08.055Z,12.45
2024-03-16T22:47:35.201Z,12.85
2024-03-16T22:50:02.506Z,9.13
2024-03-16T22:52:28.604Z,12.75
2024-03-16T22:54:57.082Z,13.70
2024-03-16T22:57:23.945Z,7.32
2024-03-16T22:59:49.943Z,13.38
2024-03-16T23:02:16.203Z,9.20
2024-03-16T23:04:42.349Z,7.88
2024-03-16T23:07:10.541Z,8.20
2024-03-16T23:09:36.816Z,7.85
2024-03-16T23:12:02.814Z,14.18
2024-03-16T23:14:29.313Z,9.10
2024-03-16T23:16:55.953Z,13.77
2024-03-16T23:19:22.489Z,10.63
2024-03-16T23:21:49.942Z,7.25
2024-03-16T23:24:22.830Z,9.48
2024-03-16T23:26:48.740Z,19.77
2024-03-16T23:29:19.724Z,13.02
2024-03-16T23:31:45.615Z,8.07
2024-03-16T23:34:12.162Z,10.07
2024-03-16T23:36:38.529Z,11.18
2024-03-16T23:39:06.767Z,22.05
2024-03-16T23:41:33.705Z,9.02
2024-03-16T23:43:59.552Z,13.90
2024-03-16T23:46:25.425Z,15.30
2024-03-16T23:48:51.252Z,9.93
2024-03-16T23:51:17.433Z,9.05
2024-03-16T23:53:46.601Z,13.15
2024-03-16T23:56:13.395Z,10.45
2024-03-16T23:58:39.506Z,12.98
